sensor_id;sensor_type;location;lat;lon;timestamp;P1;durP1;ratioP1;P2;durP2;ratioP2
44899;SDS011;30628;51.188;6.770;2023-09-18T00:01:11;7.72;;;7.03;;
44899;SDS011;30628;51.188;6.770;2023-09-18T00:03:37;8.60;;;7.20;;
44899;SDS011;30628;51.188;6.770;2023-09-18T00:06:02;7.65;;;6.88;;
44899;SDS011;30628;51.188;6.770;2023-09-18T00:08:28;7.75;;;6.85;;
44899;SDS011;30628;51.188;6.770;2023-09-18T00:10:54;9.32;;;6.70;;
44899;SDS011;30628;51.188;6.770;2023-09-18T00:13:20;10.32;;;7.72;;
44899;SDS011;30628;51.188;6.770;2023-09-18T00:15:47;8.05;;;7.25;;
44899;SDS011;30628;51.188;6.770;2023-09-18T00:18:14;8.18;;;7.35;;
44899;SDS011;30628;51.188;6.770;2023-09-18T00:20:40;8.13;;;7.25;;
44899;SDS011;30628;51.188;6.770;2023-09-18T00:23:06;8.43;;;7.43;;
44899;SDS011;30628;51.188;6.770;2023-09-18T00:25:33;13.93;;;12.10;;
44899;SDS011;30628;51.188;6.770;2023-09-18T00:27:59;10.73;;;8.90;;
44899;SDS011;30628;51.188;6.770;2023-09-18T00:30:24;10.05;;;7.75;;
44899;SDS011;30628;51.188;6.770;2023-09-18T00:32:50;9.27;;;7.63;;
44899;SDS011;30628;51.188;6.770;2023-09-18T00:35:17;7.60;;;6.85;;
44899;SDS011;30628;51.188;6.770;2023-09-18T00:37:43;8.35;;;6.93;;
44899;SDS011;30628;51.188;6.770;2023-09-18T00:40:08;8.30;;;7.47;;
44899;SDS011;30628;51.188;6.770;2023-09-18T00:42:35;8.80;;;7.35;;
44899;SDS011;30628;51.188;6.770;2023-09-18T00:45:01;8.50;;;7.65;;
44899;SDS011;30628;51.188;6.770;2023-09-18T00:47:27;9.77;;;7.60;;
44899;SDS011;30628;51.188;6.770;2023-09-18T00:49:53;8.23;;;7.43;;
44899;SDS011;30628;51.188;6.770;2023-09-18T00:52:20;8.43;;;7.07;;
44899;SDS011;30628;51.188;6.770;2023-09-18T00:54:48;8.52;;;7.63;;
44899;SDS011;30628;51.188;6.770;2023-09-18T00:57:14;7.95;;;7.10;;
44899;SDS011;30628;51.188;6.770;2023-09-18T00:59:39;15.38;;;13.75;;
44899;SDS011;30628;51.188;6.770;2023-09-18T01:02:05;22.25;;;20.10;;
44899;SDS011;30628;51.188;6.770;2023-09-18T01:04:31;8.82;;;8.02;;
44899;SDS011;30628;51.188;6.770;2023-09-18T01:06:58;8.85;;;7.95;;
44899;SDS011;30628;51.188;6.770;2023-09-18T01:09:28;8.70;;;7.80;;
44899;SDS011;30628;51.188;6.770;2023-09-18T01:14:44;8.40;;;7.55;;
44899;SDS011;30628;51.188;6.770;2023-09-18T01:17:19;7.95;;;7.28;;
44899;SDS011;30628;51.188;6.770;2023-09-18T01:19:46;9.18;;;7.47;;
44899;SDS011;30628;51.188;6.770;2023-09-18T01:22:13;9.35;;;8.48;;
44899;SDS011;30628;51.188;6.770;2023-09-18T01:24:40;7.72;;;6.72;;
44899;SDS011;30628;51.188;6.770;2023-09-18T01:27:10;7.55;;;6.78;;
44899;SDS011;30628;51.188;6.770;2023-09-18T01:29:37;10.25;;;7.78;;
44899;SDS011;30628;51.188;6.770;2023-09-18T01:32:04;8.48;;;7.53;;
44899;SDS011;30628;51.188;6.770;2023-09-18T01:34:31;9.85;;;7.47;;
44899;SDS011;30628;51.188;6.770;2023-09-18T01:37:01;9.10;;;8.15;;
44899;SDS011;30628;51.188;6.770;2023-09-18T01:39:28;9.68;;;7.57;;
44899;SDS011;30628;51.188;6.770;2023-09-18T01:41:59;9.45;;;7.68;;
44899;SDS011;30628;51.188;6.770;2023-09-18T01:44:27;8.75;;;7.40;;
44899;SDS011;30628;51.188;6.770;2023-09-18T01:46:53;8.60;;;7.35;;
44899;SDS011;30628;51.188;6.770;2023-09-18T01:49:31;9.77;;;7.53;;
44899;SDS011;30628;51.188;6.770;2023-09-18T01:51:59;10.88;;;8.10;;
44899;SDS011;30628;51.188;6.770;2023-09-18T01:54:25;11.38;;;8.73;;
44899;SDS011;30628;51.188;6.770;2023-09-18T01:56:51;9.27;;;8.32;;
44899;SDS011;30628;51.188;6.770;2023-09-18T01:59:17;9.40;;;7.40;;
44899;SDS011;30628;51.188;6.770;2023-09-18T02:01:43;8.80;;;7.90;;
44899;SDS011;30628;51.188;6.770;2023-09-18T02:04:09;8.93;;;8.02;;
44899;SDS011;30628;51.188;6.770;2023-09-18T02:06:35;11.95;;;8.35;;
44899;SDS011;30628;51.188;6.770;2023-09-18T02:09:00;9.93;;;8.13;;
44899;SDS011;30628;51.188;6.770;2023-09-18T02:11:26;9.70;;;8.55;;
44899;SDS011;30628;51.188;6.770;2023-09-18T02:13:52;9.43;;;8.48;;
44899;SDS011;30628;51.188;6.770;2023-09-18T02:16:18;10.95;;;8.63;;
44899;SDS011;30628;51.188;6.770;2023-09-18T02:18:54;10.52;;;8.52;;
44899;SDS011;30628;51.188;6.770;2023-09-18T02:21:20;10.88;;;8.77;;
44899;SDS011;30628;51.188;6.770;2023-09-18T02:23:49;10.30;;;8.35;;
44899;SDS011;30628;51.188;6.770;2023-09-18T02:26:18;10.00;;;8.45;;
44899;SDS011;30628;51.188;6.770;2023-09-18T02:28:44;11.02;;;8.13;;
44899;SDS011;30628;51.188;6.770;2023-09-18T02:31:10;9.07;;;8.00;;
44899;SDS011;30628;51.188;6.770;2023-09-18T02:33:36;10.05;;;8.18;;
44899;SDS011;30628;51.188;6.770;2023-09-18T02:36:02;6.47;;;5.88;;
44899;SDS011;30628;51.188;6.770;2023-09-18T02:38:28;10.98;;;7.32;;
44899;SDS011;30628;51.188;6.770;2023-09-18T02:40:55;10.20;;;7.65;;
44899;SDS011;30628;51.188;6.770;2023-09-18T02:43:22;11.35;;;8.07;;
44899;SDS011;30628;51.188;6.770;2023-09-18T02:45:55;7.65;;;6.53;;
44899;SDS011;30628;51.188;6.770;2023-09-18T02:48:21;8.77;;;7.25;;
44899;SDS011;30628;51.188;6.770;2023-09-18T02:50:47;9.07;;;6.53;;
44899;SDS011;30628;51.188;6.770;2023-09-18T02:53:19;8.07;;;6.15;;
44899;SDS011;30628;51.188;6.770;2023-09-18T02:55:53;6.97;;;5.72;;
44899;SDS011;30628;51.188;6.770;2023-09-18T02:58:20;8.23;;;5.68;;
44899;SDS011;30628;51.188;6.770;2023-09-18T03:00:48;7.85;;;6.28;;
44899;SDS011;30628;51.188;6.770;2023-09-18T03:03:15;9.18;;;6.55;;
44899;SDS011;30628;51.188;6.770;2023-09-18T03:05:41;9.20;;;6.95;;
44899;SDS011;30628;51.188;6.770;2023-09-18T03:08:08;9.40;;;6.50;;
44899;SDS011;30628;51.188;6.770;2023-09-18T03:10:38;8.52;;;6.20;;
44899;SDS011;30628;51.188;6.770;2023-09-18T03:13:05;13.13;;;6.88;;
44899;SDS011;30628;51.188;6.770;2023-09-18T03:15:32;9.15;;;6.38;;
44899;SDS011;30628;51.188;6.770;2023-09-18T03:17:58;8.15;;;6.10;;
44899;SDS011;30628;51.188;6.770;2023-09-18T03:20:25;8.75;;;6.53;;
44899;SDS011;30628;51.188;6.770;2023-09-18T03:22:53;8.73;;;6.78;;
44899;SDS011;30628;51.188;6.770;2023-09-18T03:25:19;9.40;;;6.78;;
44899;SDS011;30628;51.188;6.770;2023-09-18T03:27:46;8.10;;;6.40;;
44899;SDS011;30628;51.188;6.770;2023-09-18T03:30:12;10.93;;;6.10;;
44899;SDS011;30628;51.188;6.770;2023-09-18T03:32:40;8.00;;;6.30;;
44899;SDS011;30628;51.188;6.770;2023-09-18T03:35:10;7.45;;;5.63;;
44899;SDS011;30628;51.188;6.770;2023-09-18T03:37:42;8.25;;;6.75;;
44899;SDS011;30628;51.188;6.770;2023-09-18T03:40:09;5.93;;;5.38;;
44899;SDS011;30628;51.188;6.770;2023-09-18T03:42:35;9.27;;;6.32;;
44899;SDS011;30628;51.188;6.770;2023-09-18T03:45:00;9.82;;;6.68;;
44899;SDS011;30628;51.188;6.770;2023-09-18T03:47:26;7.50;;;5.93;;
44899;SDS011;30628;51.188;6.770;2023-09-18T03:49:52;8.52;;;6.13;;
44899;SDS011;30628;51.188;6.770;2023-09-18T03:52:17;10.98;;;6.55;;
44899;SDS011;30628;51.188;6.770;2023-09-18T03:54:43;5.80;;;5.20;;
44899;SDS011;30628;51.188;6.770;2023-09-18T03:57:08;7.82;;;6.60;;
44899;SDS011;30628;51.188;6.770;2023-09-18T03:59:34;6.60;;;4.50;;
44899;SDS011;30628;51.188;6.770;2023-09-18T04:02:00;6.03;;;5.13;;
44899;SDS011;30628;51.188;6.770;2023-09-18T04:04:25;8.75;;;6.28;;
44899;SDS011;30628;51.188;6.770;2023-09-18T04:06:51;11.00;;;5.95;;
44899;SDS011;30628;51.188;6.770;2023-09-18T04:09:16;8.75;;;4.80;;
44899;SDS011;30628;51.188;6.770;2023-09-18T04:11:43;8.32;;;6.07;;
44899;SDS011;30628;51.188;6.770;2023-09-18T04:14:08;6.63;;;4.85;;
44899;SDS011;30628;51.188;6.770;2023-09-18T04:16:34;8.73;;;6.50;;
44899;SDS011;30628;51.188;6.770;2023-09-18T04:19:04;7.65;;;6.55;;
44899;SDS011;30628;51.188;6.770;2023-09-18T04:21:30;7.25;;;5.88;;
44899;SDS011;30628;51.188;6.770;2023-09-18T04:23:56;7.65;;;5.88;;
44899;SDS011;30628;51.188;6.770;2023-09-18T04:26:23;9.43;;;5.80;;
44899;SDS011;30628;51.188;6.770;2023-09-18T04:28:49;8.90;;;6.15;;
44899;SDS011;30628;51.188;6.770;2023-09-18T04:31:14;7.45;;;5.50;;
44899;SDS011;30628;51.188;6.770;2023-09-18T04:33:41;6.10;;;5.15;;
44899;SDS011;30628;51.188;6.770;2023-09-18T04:36:07;8.07;;;5.75;;
44899;SDS011;30628;51.188;6.770;2023-09-18T04:38:33;5.10;;;4.28;;
44899;SDS011;30628;51.188;6.770;2023-09-18T04:40:59;5.57;;;4.63;;
44899;SDS011;30628;51.188;6.770;2023-09-18T04:43:25;5.68;;;4.70;;
44899;SDS011;30628;51.188;6.770;2023-09-18T04:45:51;8.90;;;5.65;;
44899;SDS011;30628;51.188;6.770;2023-09-18T04:48:16;6.22;;;4.57;;
44899;SDS011;30628;51.188;6.770;2023-09-18T04:50:42;9.38;;;6.35;;
44899;SDS011;30628;51.188;6.770;2023-09-18T04:53:08;7.25;;;5.13;;
44899;SDS011;30628;51.188;6.770;2023-09-18T04:55:34;5.45;;;4.97;;
44899;SDS011;30628;51.188;6.770;2023-09-18T04:58:00;7.28;;;4.95;;
44899;SDS011;30628;51.188;6.770;2023-09-18T05:00:25;5.18;;;4.65;;
44899;SDS011;30628;51.188;6.770;2023-09-18T05:02:53;5.45;;;4.30;;
44899;SDS011;30628;51.188;6.770;2023-09-18T05:05:19;9.90;;;5.10;;
44899;SDS011;30628;51.188;6.770;2023-09-18T05:07:45;7.22;;;5.20;;
44899;SDS011;30628;51.188;6.770;2023-09-18T05:10:10;4.45;;;4.00;;
44899;SDS011;30628;51.188;6.770;2023-09-18T05:12:38;7.25;;;4.80;;
44899;SDS011;30628;51.188;6.770;2023-09-18T05:15:05;5.63;;;4.00;;
44899;SDS011;30628;51.188;6.770;2023-09-18T05:17:44;5.80;;;3.83;;
44899;SDS011;30628;51.188;6.770;2023-09-18T05:20:34;7.50;;;5.00;;
44899;SDS011;30628;51.188;6.770;2023-09-18T05:23:00;6.25;;;4.65;;
44899;SDS011;30628;51.188;6.770;2023-09-18T05:25:27;7.50;;;4.75;;
44899;SDS011;30628;51.188;6.770;2023-09-18T05:27:57;7.15;;;5.13;;
44899;SDS011;30628;51.188;6.770;2023-09-18T05:30:25;9.70;;;5.18;;
44899;SDS011;30628;51.188;6.770;2023-09-18T05:32:59;7.43;;;5.07;;
44899;SDS011;30628;51.188;6.770;2023-09-18T05:35:42;9.93;;;4.40;;
44899;SDS011;30628;51.188;6.770;2023-09-18T05:38:10;9.55;;;4.47;;
44899;SDS011;30628;51.188;6.770;2023-09-18T05:40:38;7.35;;;4.55;;
44899;SDS011;30628;51.188;6.770;2023-09-18T05:43:04;11.23;;;9.35;;
44899;SDS011;30628;51.188;6.770;2023-09-18T05:45:30;10.63;;;7.93;;
44899;SDS011;30628;51.188;6.770;2023-09-18T05:47:57;5.97;;;4.38;;
44899;SDS011;30628;51.188;6.770;2023-09-18T05:50:28;9.73;;;4.43;;
44899;SDS011;30628;51.188;6.770;2023-09-18T05:52:58;8.73;;;4.35;;
44899;SDS011;30628;51.188;6.770;2023-09-18T05:55:26;8.30;;;4.15;;
44899;SDS011;30628;51.188;6.770;2023-09-18T05:57:52;9.20;;;4.00;;
44899;SDS011;30628;51.188;6.770;2023-09-18T06:00:18;8.27;;;4.28;;
44899;SDS011;30628;51.188;6.770;2023-09-18T06:02:44;7.65;;;3.80;;
44899;SDS011;30628;51.188;6.770;2023-09-18T06:05:10;10.77;;;6.68;;
44899;SDS011;30628;51.188;6.770;2023-09-18T06:07:36;8.27;;;5.43;;
44899;SDS011;30628;51.188;6.770;2023-09-18T06:10:02;9.93;;;5.35;;
44899;SDS011;30628;51.188;6.770;2023-09-18T06:12:28;10.45;;;4.97;;
44899;SDS011;30628;51.188;6.770;2023-09-18T06:14:55;5.15;;;4.15;;
44899;SDS011;30628;51.188;6.770;2023-09-18T06:17:21;7.95;;;3.80;;
44899;SDS011;30628;51.188;6.770;2023-09-18T06:19:47;10.43;;;3.70;;
44899;SDS011;30628;51.188;6.770;2023-09-18T06:22:13;5.65;;;3.22;;
44899;SDS011;30628;51.188;6.770;2023-09-18T06:24:39;8.18;;;3.80;;
44899;SDS011;30628;51.188;6.770;2023-09-18T06:27:05;8.30;;;3.47;;
44899;SDS011;30628;51.188;6.770;2023-09-18T06:29:31;4.43;;;3.42;;
44899;SDS011;30628;51.188;6.770;2023-09-18T06:31:58;6.72;;;3.30;;
44899;SDS011;30628;51.188;6.770;2023-09-18T06:34:24;5.43;;;3.50;;
44899;SDS011;30628;51.188;6.770;2023-09-18T06:36:50;3.97;;;3.05;;
44899;SDS011;30628;51.188;6.770;2023-09-18T06:39:15;5.47;;;3.03;;
44899;SDS011;30628;51.188;6.770;2023-09-18T06:41:41;5.88;;;2.83;;
44899;SDS011;30628;51.188;6.770;2023-09-18T06:44:07;19.27;;;16.77;;
44899;SDS011;30628;51.188;6.770;2023-09-18T06:46:32;6.32;;;4.53;;
44899;SDS011;30628;51.188;6.770;2023-09-18T06:48:58;6.05;;;3.70;;
44899;SDS011;30628;51.188;6.770;2023-09-18T06:51:25;6.22;;;2.65;;
44899;SDS011;30628;51.188;6.770;2023-09-18T06:53:51;4.28;;;2.90;;
44899;SDS011;30628;51.188;6.770;2023-09-18T06:56:16;5.32;;;3.10;;
44899;SDS011;30628;51.188;6.770;2023-09-18T06:58:42;3.50;;;2.70;;
44899;SDS011;30628;51.188;6.770;2023-09-18T07:01:08;5.03;;;2.90;;
44899;SDS011;30628;51.188;6.770;2023-09-18T07:03:34;4.78;;;2.42;;
44899;SDS011;30628;51.188;6.770;2023-09-18T07:06:01;9.02;;;5.63;;
44899;SDS011;30628;51.188;6.770;2023-09-18T07:08:27;11.07;;;9.45;;
44899;SDS011;30628;51.188;6.770;2023-09-18T07:10:53;4.75;;;4.03;;
44899;SDS011;30628;51.188;6.770;2023-09-18T07:13:19;4.75;;;2.85;;
44899;SDS011;30628;51.188;6.770;2023-09-18T07:15:44;4.00;;;2.78;;
44899;SDS011;30628;51.188;6.770;2023-09-18T07:18:10;4.20;;;2.90;;
44899;SDS011;30628;51.188;6.770;2023-09-18T07:20:39;7.57;;;2.75;;
44899;SDS011;30628;51.188;6.770;2023-09-18T07:23:05;3.90;;;2.22;;
44899;SDS011;30628;51.188;6.770;2023-09-18T07:25:31;5.05;;;2.40;;
44899;SDS011;30628;51.188;6.770;2023-09-18T07:27:56;3.78;;;2.88;;
44899;SDS011;30628;51.188;6.770;2023-09-18T07:30:22;4.75;;;2.70;;
44899;SDS011;30628;51.188;6.770;2023-09-18T07:32:52;4.15;;;2.78;;
44899;SDS011;30628;51.188;6.770;2023-09-18T07:35:27;3.65;;;2.60;;
44899;SDS011;30628;51.188;6.770;2023-09-18T07:37:52;18.75;;;13.07;;
44899;SDS011;30628;51.188;6.770;2023-09-18T07:40:19;7.72;;;5.43;;
44899;SDS011;30628;51.188;6.770;2023-09-18T07:42:44;4.07;;;3.22;;
44899;SDS011;30628;51.188;6.770;2023-09-18T07:45:10;4.80;;;3.05;;
44899;SDS011;30628;51.188;6.770;2023-09-18T07:47:37;3.97;;;2.85;;
44899;SDS011;30628;51.188;6.770;2023-09-18T07:50:03;3.65;;;2.53;;
44899;SDS011;30628;51.188;6.770;2023-09-18T07:52:31;2.95;;;1.85;;
44899;SDS011;30628;51.188;6.770;2023-09-18T07:54:57;4.25;;;1.90;;
44899;SDS011;30628;51.188;6.770;2023-09-18T07:57:23;2.30;;;2.10;;
44899;SDS011;30628;51.188;6.770;2023-09-18T07:59:50;2.53;;;1.83;;
44899;SDS011;30628;51.188;6.770;2023-09-18T08:02:16;4.53;;;1.95;;
44899;SDS011;30628;51.188;6.770;2023-09-18T08:04:42;2.90;;;1.98;;
44899;SDS011;30628;51.188;6.770;2023-09-18T08:07:08;3.47;;;1.70;;
44899;SDS011;30628;51.188;6.770;2023-09-18T08:09:34;2.78;;;2.13;;
44899;SDS011;30628;51.188;6.770;2023-09-18T08:12:02;2.20;;;1.63;;
44899;SDS011;30628;51.188;6.770;2023-09-18T08:14:35;10.52;;;9.13;;
44899;SDS011;30628;51.188;6.770;2023-09-18T08:17:01;10.27;;;8.10;;
44899;SDS011;30628;51.188;6.770;2023-09-18T08:19:29;3.63;;;1.52;;
44899;SDS011;30628;51.188;6.770;2023-09-18T08:21:56;3.35;;;1.85;;
44899;SDS011;30628;51.188;6.770;2023-09-18T08:24:23;2.47;;;1.50;;
44899;SDS011;30628;51.188;6.770;2023-09-18T08:26:49;3.40;;;1.77;;
44899;SDS011;30628;51.188;6.770;2023-09-18T08:29:14;3.08;;;1.42;;
44899;SDS011;30628;51.188;6.770;2023-09-18T08:31:41;2.33;;;1.65;;
44899;SDS011;30628;51.188;6.770;2023-09-18T08:34:06;3.70;;;1.85;;
44899;SDS011;30628;51.188;6.770;2023-09-18T08:36:32;2.70;;;1.30;;
44899;SDS011;30628;51.188;6.770;2023-09-18T08:38:58;1.75;;;1.20;;
44899;SDS011;30628;51.188;6.770;2023-09-18T08:41:24;3.72;;;1.55;;
44899;SDS011;30628;51.188;6.770;2023-09-18T08:43:52;3.80;;;1.80;;
44899;SDS011;30628;51.188;6.770;2023-09-18T08:46:24;4.07;;;1.20;;
44899;SDS011;30628;51.188;6.770;2023-09-18T08:48:50;2.13;;;1.75;;
44899;SDS011;30628;51.188;6.770;2023-09-18T08:51:17;2.67;;;1.42;;
44899;SDS011;30628;51.188;6.770;2023-09-18T08:53:43;1.63;;;1.42;;
44899;SDS011;30628;51.188;6.770;2023-09-18T08:56:10;1.95;;;1.33;;
44899;SDS011;30628;51.188;6.770;2023-09-18T08:58:39;3.13;;;1.42;;
44899;SDS011;30628;51.188;6.770;2023-09-18T09:01:07;2.08;;;1.60;;
44899;SDS011;30628;51.188;6.770;2023-09-18T09:03:41;1.55;;;1.40;;
44899;SDS011;30628;51.188;6.770;2023-09-18T09:06:08;5.35;;;2.05;;
44899;SDS011;30628;51.188;6.770;2023-09-18T09:08:34;2.75;;;1.27;;
44899;SDS011;30628;51.188;6.770;2023-09-18T09:11:01;2.22;;;1.23;;
44899;SDS011;30628;51.188;6.770;2023-09-18T09:13:31;3.03;;;1.40;;
44899;SDS011;30628;51.188;6.770;2023-09-18T09:15:57;2.85;;;1.42;;
44899;SDS011;30628;51.188;6.770;2023-09-18T09:18:24;2.53;;;1.50;;
44899;SDS011;30628;51.188;6.770;2023-09-18T09:20:55;2.47;;;1.40;;
44899;SDS011;30628;51.188;6.770;2023-09-18T09:23:28;2.40;;;1.17;;
44899;SDS011;30628;51.188;6.770;2023-09-18T09:26:14;3.15;;;1.50;;
44899;SDS011;30628;51.188;6.770;2023-09-18T09:28:41;2.00;;;1.23;;
44899;SDS011;30628;51.188;6.770;2023-09-18T09:31:08;2.03;;;1.40;;
44899;SDS011;30628;51.188;6.770;2023-09-18T09:33:35;3.80;;;1.27;;
44899;SDS011;30628;51.188;6.770;2023-09-18T09:36:04;2.78;;;1.10;;
44899;SDS011;30628;51.188;6.770;2023-09-18T09:38:30;3.35;;;1.40;;
44899;SDS011;30628;51.188;6.770;2023-09-18T09:41:06;2.75;;;1.50;;
44899;SDS011;30628;51.188;6.770;2023-09-18T09:43:41;4.47;;;1.40;;
44899;SDS011;30628;51.188;6.770;2023-09-18T09:46:14;2.35;;;1.13;;
44899;SDS011;30628;51.188;6.770;2023-09-18T09:48:57;2.70;;;1.20;;
44899;SDS011;30628;51.188;6.770;2023-09-18T09:53:49;1.92;;;1.45;;
44899;SDS011;30628;51.188;6.770;2023-09-18T09:56:16;4.25;;;1.30;;
44899;SDS011;30628;51.188;6.770;2023-09-18T09:59:07;2.30;;;1.30;;
44899;SDS011;30628;51.188;6.770;2023-09-18T10:01:33;3.03;;;1.15;;
44899;SDS011;30628;51.188;6.770;2023-09-18T10:03:59;1.67;;;1.25;;
44899;SDS011;30628;51.188;6.770;2023-09-18T10:06:38;3.45;;;1.20;;
44899;SDS011;30628;51.188;6.770;2023-09-18T10:09:08;1.40;;;1.10;;
44899;SDS011;30628;51.188;6.770;2023-09-18T10:11:36;3.95;;;1.40;;
44899;SDS011;30628;51.188;6.770;2023-09-18T10:14:19;1.95;;;1.30;;
44899;SDS011;30628;51.188;6.770;2023-09-18T10:16:49;2.83;;;1.33;;
44899;SDS011;30628;51.188;6.770;2023-09-18T10:21:53;2.30;;;1.30;;
44899;SDS011;30628;51.188;6.770;2023-09-18T10:24:38;1.85;;;1.23;;
44899;SDS011;30628;51.188;6.770;2023-09-18T10:27:06;2.25;;;1.10;;
44899;SDS011;30628;51.188;6.770;2023-09-18T10:29:51;3.70;;;1.58;;
44899;SDS011;30628;51.188;6.770;2023-09-18T10:32:20;3.47;;;1.85;;
44899;SDS011;30628;51.188;6.770;2023-09-18T10:34:47;2.65;;;1.55;;
44899;SDS011;30628;51.188;6.770;2023-09-18T10:37:13;1.92;;;1.30;;
44899;SDS011;30628;51.188;6.770;2023-09-18T10:39:40;2.42;;;1.38;;
44899;SDS011;30628;51.188;6.770;2023-09-18T10:42:08;1.77;;;1.40;;
44899;SDS011;30628;51.188;6.770;2023-09-18T10:44:34;2.78;;;1.23;;
44899;SDS011;30628;51.188;6.770;2023-09-18T10:47:16;2.75;;;1.50;;
44899;SDS011;30628;51.188;6.770;2023-09-18T10:49:43;2.95;;;1.60;;
44899;SDS011;30628;51.188;6.770;2023-09-18T10:52:12;2.20;;;1.45;;
44899;SDS011;30628;51.188;6.770;2023-09-18T10:54:38;1.85;;;1.30;;
44899;SDS011;30628;51.188;6.770;2023-09-18T10:57:05;3.10;;;1.35;;
44899;SDS011;30628;51.188;6.770;2023-09-18T10:59:30;2.47;;;1.05;;
44899;SDS011;30628;51.188;6.770;2023-09-18T11:01:58;2.33;;;1.10;;
44899;SDS011;30628;51.188;6.770;2023-09-18T11:04:30;2.33;;;1.65;;
44899;SDS011;30628;51.188;6.770;2023-09-18T11:09:31;2.72;;;1.70;;
44899;SDS011;30628;51.188;6.770;2023-09-18T11:12:05;1.38;;;1.05;;
44899;SDS011;30628;51.188;6.770;2023-09-18T11:14:41;3.40;;;1.90;;
44899;SDS011;30628;51.188;6.770;2023-09-18T11:17:39;1.58;;;1.13;;
44899;SDS011;30628;51.188;6.770;2023-09-18T11:22:37;1.40;;;1.15;;
44899;SDS011;30628;51.188;6.770;2023-09-18T11:28:24;2.20;;;1.60;;
44899;SDS011;30628;51.188;6.770;2023-09-18T11:30:51;2.70;;;1.58;;
44899;SDS011;30628;51.188;6.770;2023-09-18T11:33:43;4.03;;;1.38;;
44899;SDS011;30628;51.188;6.770;2023-09-18T11:36:11;2.55;;;1.25;;
44899;SDS011;30628;51.188;6.770;2023-09-18T11:41:19;2.67;;;1.50;;
44899;SDS011;30628;51.188;6.770;2023-09-18T11:43:50;1.88;;;1.23;;
44899;SDS011;30628;51.188;6.770;2023-09-18T11:46:19;2.20;;;1.40;;
44899;SDS011;30628;51.188;6.770;2023-09-18T11:48:48;2.15;;;1.67;;
44899;SDS011;30628;51.188;6.770;2023-09-18T11:51:22;3.03;;;1.45;;
44899;SDS011;30628;51.188;6.770;2023-09-18T11:53:49;2.13;;;1.60;;
44899;SDS011;30628;51.188;6.770;2023-09-18T11:56:19;1.75;;;1.55;;
44899;SDS011;30628;51.188;6.770;2023-09-18T11:58:49;3.20;;;1.35;;
44899;SDS011;30628;51.188;6.770;2023-09-18T12:01:16;2.88;;;1.20;;
44899;SDS011;30628;51.188;6.770;2023-09-18T12:03:43;3.35;;;1.98;;
44899;SDS011;30628;51.188;6.770;2023-09-18T12:06:08;3.15;;;1.70;;
44899;SDS011;30628;51.188;6.770;2023-09-18T12:08:38;2.17;;;1.75;;
44899;SDS011;30628;51.188;6.770;2023-09-18T12:11:05;3.15;;;1.48;;
44899;SDS011;30628;51.188;6.770;2023-09-18T12:13:31;2.97;;;1.50;;
44899;SDS011;30628;51.188;6.770;2023-09-18T12:15:58;3.10;;;1.77;;
44899;SDS011;30628;51.188;6.770;2023-09-18T12:18:29;2.40;;;1.50;;
44899;SDS011;30628;51.188;6.770;2023-09-18T12:20:57;3.05;;;1.55;;
44899;SDS011;30628;51.188;6.770;2023-09-18T12:23:25;4.63;;;1.52;;
44899;SDS011;30628;51.188;6.770;2023-09-18T12:25:57;1.48;;;1.38;;
44899;SDS011;30628;51.188;6.770;2023-09-18T12:28:25;3.80;;;1.20;;
44899;SDS011;30628;51.188;6.770;2023-09-18T12:30:58;2.55;;;1.38;;
44899;SDS011;30628;51.188;6.770;2023-09-18T12:33:24;1.95;;;1.60;;
44899;SDS011;30628;51.188;6.770;2023-09-18T12:35:50;3.28;;;1.70;;
44899;SDS011;30628;51.188;6.770;2023-09-18T12:38:17;2.42;;;1.40;;
44899;SDS011;30628;51.188;6.770;2023-09-18T12:40:53;1.95;;;1.60;;
44899;SDS011;30628;51.188;6.770;2023-09-18T12:43:20;1.50;;;1.17;;
44899;SDS011;30628;51.188;6.770;2023-09-18T12:45:51;2.08;;;1.40;;
44899;SDS011;30628;51.188;6.770;2023-09-18T12:48:19;3.17;;;1.70;;
44899;SDS011;30628;51.188;6.770;2023-09-18T12:50:45;2.08;;;1.20;;
44899;SDS011;30628;51.188;6.770;2023-09-18T12:53:11;2.03;;;1.33;;
44899;SDS011;30628;51.188;6.770;2023-09-18T12:55:38;3.63;;;1.40;;
44899;SDS011;30628;51.188;6.770;2023-09-18T12:58:05;2.25;;;1.20;;
44899;SDS011;30628;51.188;6.770;2023-09-18T13:00:34;1.67;;;1.30;;
44899;SDS011;30628;51.188;6.770;2023-09-18T13:03:00;1.48;;;1.38;;
44899;SDS011;30628;51.188;6.770;2023-09-18T13:05:29;3.47;;;1.40;;
44899;SDS011;30628;51.188;6.770;2023-09-18T13:08:00;3.15;;;1.27;;
44899;SDS011;30628;51.188;6.770;2023-09-18T13:13:28;3.08;;;1.75;;
44899;SDS011;30628;51.188;6.770;2023-09-18T13:15:56;1.90;;;1.40;;
44899;SDS011;30628;51.188;6.770;2023-09-18T13:18:24;1.27;;;1.17;;
44899;SDS011;30628;51.188;6.770;2023-09-18T13:20:51;2.33;;;1.58;;
44899;SDS011;30628;51.188;6.770;2023-09-18T13:23:17;2.47;;;1.42;;
44899;SDS011;30628;51.188;6.770;2023-09-18T13:25:43;2.88;;;1.40;;
44899;SDS011;30628;51.188;6.770;2023-09-18T13:28:11;2.05;;;1.60;;
44899;SDS011;30628;51.188;6.770;2023-09-18T13:30:37;1.77;;;1.67;;
44899;SDS011;30628;51.188;6.770;2023-09-18T13:33:11;2.05;;;1.75;;
44899;SDS011;30628;51.188;6.770;2023-09-18T13:35:41;10.15;;;9.20;;
44899;SDS011;30628;51.188;6.770;2023-09-18T13:38:08;4.30;;;2.35;;
44899;SDS011;30628;51.188;6.770;2023-09-18T13:40:39;3.72;;;2.08;;
44899;SDS011;30628;51.188;6.770;2023-09-18T13:43:05;4.28;;;1.45;;
44899;SDS011;30628;51.188;6.770;2023-09-18T13:45:32;3.38;;;1.60;;
44899;SDS011;30628;51.188;6.770;2023-09-18T13:48:00;3.45;;;1.92;;
44899;SDS011;30628;51.188;6.770;2023-09-18T13:50:25;2.40;;;1.75;;
44899;SDS011;30628;51.188;6.770;2023-09-18T13:52:51;4.25;;;1.80;;
44899;SDS011;30628;51.188;6.770;2023-09-18T13:55:17;2.95;;;1.60;;
44899;SDS011;30628;51.188;6.770;2023-09-18T13:57:43;2.63;;;1.63;;
44899;SDS011;30628;51.188;6.770;2023-09-18T14:00:09;3.35;;;1.85;;
44899;SDS011;30628;51.188;6.770;2023-09-18T14:02:39;2.85;;;1.83;;
44899;SDS011;30628;51.188;6.770;2023-09-18T14:05:06;4.00;;;1.50;;
44899;SDS011;30628;51.188;6.770;2023-09-18T14:07:33;3.83;;;1.63;;
44899;SDS011;30628;51.188;6.770;2023-09-18T14:09:59;3.33;;;1.80;;
44899;SDS011;30628;51.188;6.770;2023-09-18T14:12:28;3.00;;;1.40;;
44899;SDS011;30628;51.188;6.770;2023-09-18T14:14:55;2.33;;;1.65;;
44899;SDS011;30628;51.188;6.770;2023-09-18T14:17:21;2.50;;;1.48;;
44899;SDS011;30628;51.188;6.770;2023-09-18T14:19:47;4.53;;;1.90;;
44899;SDS011;30628;51.188;6.770;2023-09-18T14:22:13;3.88;;;1.63;;
44899;SDS011;30628;51.188;6.770;2023-09-18T14:24:39;1.85;;;1.40;;
44899;SDS011;30628;51.188;6.770;2023-09-18T14:27:05;6.78;;;5.03;;
44899;SDS011;30628;51.188;6.770;2023-09-18T14:29:32;14.77;;;13.30;;
44899;SDS011;30628;51.188;6.770;2023-09-18T14:31:58;5.18;;;4.68;;
44899;SDS011;30628;51.188;6.770;2023-09-18T14:34:25;6.32;;;3.83;;
44899;SDS011;30628;51.188;6.770;2023-09-18T14:36:51;2.35;;;1.88;;
44899;SDS011;30628;51.188;6.770;2023-09-18T14:39:16;4.22;;;2.08;;
44899;SDS011;30628;51.188;6.770;2023-09-18T14:41:42;1.98;;;1.77;;
44899;SDS011;30628;51.188;6.770;2023-09-18T14:44:08;3.67;;;2.05;;
44899;SDS011;30628;51.188;6.770;2023-09-18T14:46:35;3.17;;;2.20;;
44899;SDS011;30628;51.188;6.770;2023-09-18T14:49:02;4.00;;;2.40;;
44899;SDS011;30628;51.188;6.770;2023-09-18T14:51:29;4.63;;;2.20;;
44899;SDS011;30628;51.188;6.770;2023-09-18T14:53:55;5.53;;;2.25;;
44899;SDS011;30628;51.188;6.770;2023-09-18T14:56:22;2.22;;;1.65;;
44899;SDS011;30628;51.188;6.770;2023-09-18T14:58:48;14.95;;;13.48;;
44899;SDS011;30628;51.188;6.770;2023-09-18T15:01:14;4.47;;;2.60;;
44899;SDS011;30628;51.188;6.770;2023-09-18T15:03:40;3.35;;;2.70;;
44899;SDS011;30628;51.188;6.770;2023-09-18T15:06:06;4.90;;;2.60;;
44899;SDS011;30628;51.188;6.770;2023-09-18T15:08:35;3.85;;;2.55;;
44899;SDS011;30628;51.188;6.770;2023-09-18T15:11:01;1.90;;;1.70;;